createdAt,value
2022-10-31T00:01:01.333Z,97053.94
2022-10-31T00:03:58.430Z,97058.50
2022-10-31T00:06:55.215Z,97056.59
2022-10-31T00:09:52.027Z,97058.50
2022-10-31T00:12:48.888Z,97060.13
2022-10-31T00:15:45.719Z,97062.53
2022-10-31T00:18:42.587Z,97056.44
2022-10-31T00:21:39.528Z,97061.44
2022-10-31T00:24:36.385Z,97060.41
2022-10-31T00:27:33.180Z,97059.38
2022-10-31T00:30:30.220Z,97060.69
2022-10-31T00:33:27.265Z,97061.16
2022-10-31T00:36:24.329Z,97058.53
2022-10-31T00:39:21.172Z,97057.50
2022-10-31T00:42:17.984Z,97062.84
2022-10-31T00:45:14.884Z,97063.34
2022-10-31T00:48:11.938Z,97069.78
2022-10-31T00:51:09.546Z,97069.47
2022-10-31T00:54:06.524Z,97064.97
2022-10-31T00:57:03.749Z,97073.53
2022-10-31T01:00:00.549Z,97067.94
2022-10-31T01:02:57.806Z,97072.75
2022-10-31T01:06:04.930Z,97069.50
2022-10-31T01:09:01.788Z,97071.94
2022-10-31T01:11:58.631Z,97064.47
2022-10-31T01:14:55.425Z,97072.47
2022-10-31T01:17:52.316Z,97069.78
2022-10-31T01:20:58.143Z,97060.75
2022-10-31T01:23:56.141Z,97063.91
2022-10-31T01:26:52.972Z,97065.53
2022-10-31T01:29:49.776Z,97067.66
2022-10-31T01:32:46.598Z,97059.16
2022-10-31T01:35:43.410Z,97061.00
2022-10-31T01:38:40.468Z,97060.75
2022-10-31T01:41:41.723Z,97058.09
2022-10-31T01:44:38.394Z,97056.47
2022-10-31T01:47:46.828Z,97047.16
2022-10-31T01:50:48.748Z,97055.41
2022-10-31T01:53:46.663Z,97057.81
2022-10-31T01:56:49.032Z,97051.41
2022-10-31T01:59:52.854Z,97051.13
2022-10-31T02:02:51.399Z,97053.56
2022-10-31T02:05:49.335Z,97045.28
2022-10-31T02:08:46.895Z,97042.06
2022-10-31T02:11:45.329Z,97037.00
2022-10-31T02:14:42.334Z,97044.22
2022-10-31T02:17:39.500Z,97044.69
2022-10-31T02:20:51.143Z,97039.69
2022-10-31T02:23:53.360Z,97044.19
2022-10-31T02:27:43.434Z,97037.00
2022-10-31T02:31:06.746Z,97041.53
2022-10-31T02:34:38.709Z,97040.47
2022-10-31T02:37:55.984Z,97045.03
2022-10-31T02:41:01.250Z,97034.09
2022-10-31T02:44:29.556Z,97038.91
2022-10-31T02:47:34.933Z,97035.72
2022-10-31T02:50:38.475Z,97039.44
2022-10-31T02:53:37.512Z,97030.88
2022-10-31T02:56:34.457Z,97034.38
2022-10-31T02:59:34.334Z,97037.31
2022-10-31T03:02:55.912Z,97041.56
2022-10-31T03:06:18.159Z,97046.38
2022-10-31T03:09:35.064Z,97047.69
2022-10-31T03:12:44.473Z,97045.59
2022-10-31T03:15:48.494Z,97046.09
2022-10-31T03:19:04.792Z,97046.09
2022-10-31T03:22:11.001Z,97053.25
2022-10-31T03:25:09.826Z,97049.78
2022-10-31T03:28:08.713Z,97051.13
2022-10-31T03:31:07.796Z,97050.31
2022-10-31T03:34:07.174Z,97053.75
2022-10-31T03:37:09.737Z,97058.03
2022-10-31T03:40:10.139Z,97055.66
2022-10-31T03:43:14.798Z,97058.06
2022-10-31T03:46:11.796Z,97059.38
2022-10-31T03:49:09.311Z,97065.75
2022-10-31T03:52:36.147Z,97061.75
2022-10-31T03:55:51.501Z,97068.66
2022-10-31T03:59:04.678Z,97066.81
2022-10-31T04:02:11.856Z,97072.19
2022-10-31T04:05:11.534Z,97075.91
2022-10-31T04:08:14.130Z,97069.78
2022-10-31T04:11:13.725Z,97068.72
2022-10-31T04:14:12.208Z,97071.94
2022-10-31T04:17:14.778Z,97068.47
2022-10-31T04:20:12.282Z,97072.72
2022-10-31T04:23:26.454Z,97069.25
2022-10-31T04:26:23.488Z,97070.63
2022-10-31T04:29:20.336Z,97075.13
2022-10-31T04:32:18.596Z,97071.94
2022-10-31T04:35:15.480Z,97069.22
2022-10-31T04:38:12.320Z,97061.53
2022-10-31T04:41:09.238Z,97073.53
2022-10-31T04:44:06.125Z,97073.03
2022-10-31T04:47:02.968Z,97069.25
2022-10-31T04:49:59.998Z,97077.81
2022-10-31T04:52:56.819Z,97064.81
2022-10-31T04:55:53.631Z,97063.72
2022-10-31T04:58:50.451Z,97061.88
2022-10-31T05:01:47.420Z,97059.16
2022-10-31T05:04:44.365Z,97060.75
2022-10-31T05:07:46.674Z,97060.47
2022-10-31T05:10:43.505Z,97056.72
2022-10-31T05:13:40.344Z,97064.94
2022-10-31T05:16:37.137Z,97067.03
2022-10-31T05:19:33.991Z,97065.19
2022-10-31T05:22:30.806Z,97058.47
2022-10-31T05:25:29.312Z,97057.94
2022-10-31T05:28:26.129Z,97047.28
2022-10-31T05:31:23.022Z,97048.63
2022-10-31T05:34:19.832Z,97057.66
2022-10-31T05:37:16.673Z,97045.16
2022-10-31T05:40:16.215Z,97048.06
2022-10-31T05:43:13.038Z,97049.94
2022-10-31T05:46:09.827Z,97041.38
2022-10-31T05:49:06.630Z,97047.53
2022-10-31T05:52:03.560Z,97051.81
2022-10-31T05:55:00.680Z,97054.25
2022-10-31T05:57:58.108Z,97045.41
2022-10-31T06:00:55.292Z,97050.50
2022-10-31T06:03:52.100Z,97049.09
2022-10-31T06:06:49.102Z,97042.38
2022-10-31T06:09:46.000Z,97042.47
2022-10-31T06:12:42.812Z,97039.19
2022-10-31T06:15:39.638Z,97043.38
2022-10-31T06:18:36.496Z,97045.25
2022-10-31T06:21:33.349Z,97043.03
2022-10-31T06:24:30.176Z,97035.00
2022-10-31T06:27:27.559Z,97043.72
2022-10-31T06:30:24.457Z,97043.66
2022-10-31T06:33:21.271Z,97046.31
2022-10-31T06:36:18.457Z,97044.72
2022-10-31T06:39:16.115Z,97042.56
2022-10-31T06:42:13.138Z,97055.84
2022-10-31T06:45:10.123Z,97060.94
2022-10-31T06:48:22.785Z,97057.16
2022-10-31T06:51:20.040Z,97062.47
2022-10-31T06:54:17.236Z,97064.31
2022-10-31T06:57:14.071Z,97058.16
2022-10-31T07:00:11.838Z,97063.19
2022-10-31T07:03:13.716Z,97072.28
2022-10-31T07:06:10.531Z,97065.63
2022-10-31T07:09:07.447Z,97070.53
2022-10-31T07:12:04.439Z,97070.22
2022-10-31T07:15:01.300Z,97068.41
2022-10-31T07:18:07.124Z,97071.50
2022-10-31T07:21:04.476Z,97066.16
2022-10-31T07:24:01.299Z,97077.69
2022-10-31T07:29:59.817Z,97078.75
2022-10-31T07:32:56.635Z,97073.59
2022-10-31T07:35:54.306Z,97068.16
2022-10-31T07:38:51.180Z,97069.78
2022-10-31T07:41:47.967Z,97065.94
2022-10-31T07:44:44.818Z,97063.88
2022-10-31T07:47:53.342Z,97067.75
2022-10-31T07:50:50.318Z,97060.31
2022-10-31T07:53:47.232Z,97057.22
2022-10-31T07:56:44.065Z,97050.97
2022-10-31T07:59:40.900Z,97054.50
2022-10-31T08:02:37.720Z,97051.03
2022-10-31T08:05:35.529Z,97044.84
2022-10-31T08:08:36.009Z,97047.53
2022-10-31T08:11:35.195Z,97049.91
2022-10-31T08:14:32.071Z,97048.53
2022-10-31T08:17:28.908Z,97043.31
2022-10-31T08:20:25.939Z,97039.50
2022-10-31T08:23:22.934Z,97039.44
2022-10-31T08:26:19.743Z,97038.06
2022-10-31T08:29:16.614Z,97034.22
2022-10-31T08:32:13.849Z,97045.28
2022-10-31T08:35:10.658Z,97038.84
2022-10-31T08:38:08.673Z,97040.38
2022-10-31T08:41:05.613Z,97037.09
2022-10-31T08:44:02.665Z,97024.63
2022-10-31T08:46:59.542Z,97028.72
2022-10-31T08:49:56.396Z,97013.38
2022-10-31T08:53:04.856Z,97011.09
2022-10-31T08:56:02.327Z,97021.44
2022-10-31T08:58:59.244Z,97014.00
2022-10-31T09:01:56.198Z,97018.00
2022-10-31T09:04:53.117Z,97011.72
2022-10-31T09:07:49.958Z,97018.38
2022-10-31T09:10:46.880Z,97021.34
2022-10-31T09:13:43.745Z,97012.28
2022-10-31T09:16:40.546Z,97000.91
2022-10-31T09:19:37.357Z,97008.47
2022-10-31T09:22:34.218Z,96988.47
2022-10-31T09:25:31.712Z,96993.44
2022-10-31T09:28:28.556Z,96974.06
2022-10-31T09:31:25.361Z,96966.22
2022-10-31T09:34:22.189Z,96957.78
2022-10-31T09:37:19.036Z,96974.91
2022-10-31T09:40:15.892Z,96961.09
2022-10-31T09:43:19.454Z,96964.28
2022-10-31T09:46:36.940Z,96956.72
2022-10-31T09:50:20.537Z,96959.50
2022-10-31T09:53:35.343Z,96947.63
2022-10-31T09:56:33.528Z,96950.41
2022-10-31T09:59:40.534Z,96954.00
2022-10-31T10:02:48.430Z,96949.25
2022-10-31T10:06:24.240Z,96947.25
2022-10-31T10:09:27.033Z,96953.88
2022-10-31T10:13:20.189Z,96950.81
2022-10-31T10:16:56.032Z,96951.06
2022-10-31T10:20:31.377Z,96943.91
2022-10-31T10:23:49.006Z,96939.50
2022-10-31T10:27:22.393Z,96939.72
2022-10-31T10:30:27.923Z,96934.25
2022-10-31T10:34:19.225Z,96937.25
2022-10-31T10:37:53.876Z,96932.41
2022-10-31T10:40:52.957Z,96924.50
2022-10-31T10:43:55.187Z,96929.28
2022-10-31T10:47:18.949Z,96922.69
2022-10-31T10:50:21.476Z,96915.72
2022-10-31T10:54:03.164Z,96916.78
2022-10-31T10:57:21.311Z,96912.00
2022-10-31T11:00:25.068Z,96905.72
2022-10-31T11:03:22.357Z,96903.59
2022-10-31T11:06:27.015Z,96895.81
2022-10-31T11:09:23.817Z,96894.34
2022-10-31T11:12:32.762Z,96883.84
2022-10-31T11:15:34.762Z,96875.22
2022-10-31T11:18:37.682Z,96875.22
2022-10-31T11:21:35.740Z,96876.91
2022-10-31T11:24:42.180Z,96880.03
2022-10-31T11:27:39.028Z,96872.72
2022-10-31T11:31:14.874Z,96878.19
2022-10-31T11:34:43.165Z,96873.72
2022-10-31T11:37:45.189Z,96866.41
2022-10-31T11:41:15.835Z,96863.47
2022-10-31T11:44:21.482Z,96861.66
2022-10-31T11:47:29.378Z,96862.16
2022-10-31T11:50:40.270Z,96861.66
2022-10-31T11:53:37.169Z,96854.63
2022-10-31T11:56:42.073Z,96854.59
2022-10-31T11:59:40.327Z,96851.69
2022-10-31T12:02:37.223Z,96848.91
2022-10-31T12:05:34.433Z,96843.13
2022-10-31T12:08:35.707Z,96845.00
2022-10-31T12:12:08.279Z,96837.41
2022-10-31T12:15:37.568Z,96835.13
2022-10-31T12:19:02.781Z,96839.69
2022-10-31T12:22:21.373Z,96841.09
2022-10-31T12:25:52.021Z,96827.25
2022-10-31T12:29:29.840Z,96817.72
2022-10-31T12:32:52.796Z,96815.97
2022-10-31T12:36:15.414Z,96818.94
2022-10-31T12:39:26.785Z,96813.50
2022-10-31T12:43:02.247Z,96810.59
2022-10-31T12:46:01.513Z,96804.41
2022-10-31T12:49:29.973Z,96803.25
2022-10-31T12:52:51.243Z,96801.44
2022-10-31T12:56:14.080Z,96793.88
2022-10-31T12:59:38.874Z,96793.63
2022-10-31T13:02:53.832Z,96789.59
2022-10-31T13:05:59.929Z,96781.00
2022-10-31T13:09:03.106Z,96782.59
2022-10-31T13:12:08.762Z,96766.09
2022-10-31T13:15:49.019Z,96767.88
2022-10-31T13:19:21.040Z,96766.72
2022-10-31T13:22:25.840Z,96760.53
2022-10-31T13:25:49.333Z,96758.53
2022-10-31T13:29:26.876Z,96750.19
2022-10-31T13:32:37.041Z,96756.19
2022-10-31T13:35:48.646Z,96752.34
2022-10-31T13:39:04.348Z,96758.81
2022-10-31T13:42:21.977Z,96752.38
2022-10-31T13:45:23.235Z,96756.66
2022-10-31T13:48:40.215Z,96750.69
2022-10-31T13:51:37.076Z,96749.44
2022-10-31T13:54:36.288Z,96743.25
2022-10-31T13:57:45.791Z,96737.59
2022-10-31T14:00:44.242Z,96737.13
2022-10-31T14:07:13.860Z,96731.97
2022-10-31T14:10:28.087Z,96736.81
2022-10-31T14:13:43.596Z,96732.31
2022-10-31T14:16:45.157Z,96730.84
2022-10-31T14:19:42.001Z,96735.25
2022-10-31T14:22:42.775Z,96726.31
2022-10-31T14:25:41.604Z,96726.00
2022-10-31T14:28:38.520Z,96723.50
2022-10-31T14:31:38.574Z,96722.81
2022-10-31T14:34:39.736Z,96731.34
2022-10-31T14:38:09.723Z,96716.97
2022-10-31T14:41:39.401Z,96721.88
2022-10-31T14:45:06.834Z,96727.97
2022-10-31T14:48:37.203Z,96719.63
2022-10-31T14:51:40.623Z,96704.38
2022-10-31T14:54:43.717Z,96702.06
2022-10-31T14:57:51.797Z,96702.00
2022-10-31T15:00:57.964Z,96702.69
2022-10-31T15:07:26.424Z,96700.25
2022-10-31T15:10:30.644Z,96697.81
2022-10-31T15:13:27.486Z,96694.72
2022-10-31T15:19:35.401Z,96690.59
2022-10-31T15:22:32.801Z,96683.53
2022-10-31T15:25:35.393Z,96672.84
2022-10-31T15:28:32.693Z,96676.78
2022-10-31T15:31:32.257Z,96681.13
2022-10-31T15:34:43.376Z,96682.69
2022-10-31T15:37:42.679Z,96675.97
2022-10-31T15:40:39.618Z,96677.09
2022-10-31T15:43:45.426Z,96678.50
2022-10-31T15:46:42.549Z,96675.22
2022-10-31T15:49:50.679Z,96676.50
2022-10-31T15:52:49.232Z,96674.28
2022-10-31T15:56:02.680Z,96673.03
2022-10-31T15:59:02.561Z,96676.50
2022-10-31T16:02:11.970Z,96668.44
2022-10-31T16:05:20.425Z,96665.28
2022-10-31T16:08:35.431Z,96664.16
2022-10-31T16:11:39.885Z,96660.56
2022-10-31T16:14:44.509Z,96656.28
2022-10-31T16:17:44.228Z,96652.59
2022-10-31T16:20:41.061Z,96656.88
2022-10-31T16:23:45.282Z,96648.16
2022-10-31T16:26:42.617Z,96655.63
2022-10-31T16:29:47.561Z,96653.75
2022-10-31T16:33:02.183Z,96649.75
2022-10-31T16:36:22.425Z,96647.06
2022-10-31T16:39:20.819Z,96651.81
2022-10-31T16:42:18.827Z,96656.44
2022-10-31T16:45:26.165Z,96656.31
2022-10-31T16:48:25.398Z,96662.00
2022-10-31T16:51:24.464Z,96660.72
2022-10-31T16:54:21.275Z,96663.25
2022-10-31T16:57:27.266Z,96669.28
2022-10-31T17:00:28.874Z,96666.88
2022-10-31T17:03:25.777Z,96672.28
2022-10-31T17:06:22.602Z,96670.97
2022-10-31T17:09:19.416Z,96668.28
2022-10-31T17:12:22.902Z,96665.44
2022-10-31T17:15:26.865Z,96665.28
2022-10-31T17:18:27.607Z,96648.09
2022-10-31T17:21:27.951Z,96646.81
2022-10-31T17:24:27.101Z,96650.28
2022-10-31T17:27:23.986Z,96649.97
2022-10-31T17:30:24.915Z,96658.03
2022-10-31T17:33:21.852Z,96658.19
2022-10-31T17:36:18.706Z,96657.38
2022-10-31T17:39:15.501Z,96671.41
2022-10-31T17:42:12.896Z,96654.50
2022-10-31T17:45:10.609Z,96661.06
2022-10-31T17:48:10.795Z,96668.91
2022-10-31T17:51:07.936Z,96671.72
2022-10-31T17:54:09.831Z,96671.34
2022-10-31T17:57:06.798Z,96658.22
2022-10-31T18:00:10.203Z,96662.53
2022-10-31T18:03:07.741Z,96665.47
2022-10-31T18:06:05.551Z,96665.91
2022-10-31T18:09:06.337Z,96654.16
2022-10-31T18:12:03.286Z,96661.66
2022-10-31T18:15:00.342Z,96658.75
2022-10-31T18:17:57.231Z,96658.09
2022-10-31T18:20:58.045Z,96660.59
2022-10-31T18:23:56.728Z,96649.03
2022-10-31T18:26:53.600Z,96660.69
2022-10-31T18:29:50.495Z,96651.19
2022-10-31T18:32:53.247Z,96649.41
2022-10-31T18:35:50.139Z,96646.00
2022-10-31T18:38:47.023Z,96640.94
2022-10-31T18:41:43.937Z,96638.38
2022-10-31T18:44:40.852Z,96628.13
2022-10-31T18:47:37.727Z,96629.44
2022-10-31T18:50:34.664Z,96640.09
2022-10-31T18:53:32.281Z,96634.75
2022-10-31T18:56:33.293Z,96647.41
2022-10-31T18:59:30.273Z,96638.25
2022-10-31T19:02:27.581Z,96639.72
2022-10-31T19:05:24.513Z,96637.63
2022-10-31T19:08:23.779Z,96641.31
2022-10-31T19:11:20.735Z,96625.94
2022-10-31T19:14:17.751Z,96635.19
2022-10-31T19:17:14.800Z,96632.25
2022-10-31T19:20:12.488Z,96622.03
2022-10-31T19:23:09.328Z,96623.03
2022-10-31T19:26:06.514Z,96627.13
2022-10-31T19:29:04.150Z,96624.44
2022-10-31T19:32:01.156Z,96614.56
2022-10-31T19:35:01.042Z,96612.94
2022-10-31T19:37:58.054Z,96608.03
2022-10-31T19:41:01.592Z,96607.25
2022-10-31T19:44:00.942Z,96601.22
2022-10-31T19:46:58.223Z,96587.81
2022-10-31T19:49:55.083Z,96584.28
2022-10-31T19:52:51.953Z,96584.13
2022-10-31T19:55:48.944Z,96576.19
2022-10-31T19:58:46.647Z,96569.75
2022-10-31T20:01:43.623Z,96568.53
2022-10-31T20:04:41.687Z,96570.75
2022-10-31T20:07:41.314Z,96570.75
2022-10-31T20:10:38.200Z,96570.25
2022-10-31T20:13:35.085Z,96582.34
2022-10-31T20:16:32.582Z,96584.66
2022-10-31T20:19:29.495Z,96594.06
2022-10-31T20:22:26.551Z,96593.00
2022-10-31T20:25:23.376Z,96589.88
2022-10-31T20:28:20.426Z,96581.31
2022-10-31T20:31:23.857Z,96583.81
2022-10-31T20:34:20.835Z,96583.16
2022-10-31T20:37:17.834Z,96577.28
2022-10-31T20:40:14.795Z,96577.78
2022-10-31T20:43:12.495Z,96576.06
2022-10-31T20:46:19.371Z,96567.19
2022-10-31T20:49:16.290Z,96552.97
2022-10-31T20:52:13.135Z,96543.53
2022-10-31T20:55:10.798Z,96547.63
2022-10-31T20:58:08.105Z,96545.94
2022-10-31T21:01:27.035Z,96544.88
2022-10-31T21:04:24.003Z,96542.59
2022-10-31T21:07:20.899Z,96542.91
2022-10-31T21:10:17.809Z,96538.22
2022-10-31T21:13:15.126Z,96538.38
2022-10-31T21:16:21.433Z,96542.94
2022-10-31T21:19:18.390Z,96538.19
2022-10-31T21:22:15.261Z,96529.28
2022-10-31T21:25:12.102Z,96542.75
2022-10-31T21:28:13.199Z,96541.00
2022-10-31T21:31:15.676Z,96540.00
2022-10-31T21:34:13.158Z,96546.75
2022-10-31T21:37:10.032Z,96558.84
2022-10-31T21:40:07.811Z,96545.19
2022-10-31T21:43:04.971Z,96550.03
2022-10-31T21:46:13.800Z,96530.13
2022-10-31T21:49:11.447Z,96535.38
2022-10-31T21:52:08.873Z,96532.13
2022-10-31T21:55:06.478Z,96524.97
2022-10-31T21:58:03.572Z,96524.50
2022-10-31T22:01:03.792Z,96524.28
2022-10-31T22:04:00.766Z,96515.38
2022-10-31T22:06:57.624Z,96513.69
2022-10-31T22:09:54.465Z,96523.88
2022-10-31T22:12:51.278Z,96506.94
2022-10-31T22:15:48.118Z,96502.91
2022-10-31T22:18:45.522Z,96495.78
2022-10-31T22:21:48.533Z,96488.03
2022-10-31T22:24:45.334Z,96488.84
2022-10-31T22:27:42.737Z,96489.13
2022-10-31T22:30:39.515Z,96491.22
2022-10-31T22:33:37.149Z,96492.31
2022-10-31T22:36:34.378Z,96494.56
2022-10-31T22:39:31.228Z,96485.75
2022-10-31T22:42:28.112Z,96476.47
2022-10-31T22:45:24.983Z,96484.09
2022-10-31T22:48:21.998Z,96487.94
2022-10-31T22:51:26.260Z,96491.41
2022-10-31T22:54:23.064Z,96487.44
2022-10-31T22:57:19.874Z,96486.75
2022-10-31T23:00:18.413Z,96500.03
2022-10-31T23:03:15.227Z,96486.63
2022-10-31T23:06:16.362Z,96483.66
2022-10-31T23:09:16.275Z,96499.56
2022-10-31T23:12:31.660Z,96497.78
2022-10-31T23:15:28.534Z,96501.44
2022-10-31T23:18:48.492Z,96524.53
2022-10-31T23:22:00.923Z,96509.72
2022-10-31T23:24:57.918Z,96513.34
2022-10-31T23:27:54.728Z,96523.72
2022-10-31T23:30:51.537Z,96532.53
2022-10-31T23:33:48.337Z,96532.00
2022-10-31T23:36:45.168Z,96527.75
2022-10-31T23:39:42.350Z,96529.88
2022-10-31T23:42:39.154Z,96524.69
2022-10-31T23:45:35.988Z,96526.19
2022-10-31T23:48:32.847Z,96521.66
2022-10-31T23:51:29.683Z,96518.88
2022-10-31T23:54:27.560Z,96512.91
2022-10-31T23:57:24.384Z,96510.31
